Time;durP1;ratioP1;P1;durP2;ratioP2;P2;SDS_P1;SDS_P2;PMS_P1;PMS_P2;Temp;Humidity;BMP_temperature;BMP_pressure;BME280_temperature;BME280_humidity;BME280_pressure;Samples;Min_cycle;Max_cycle;Signal;HPM_P1;HPM_P2
2024/02/19 00:02:04;;;;;;;2.97;2.10;;;;;;;-5.90;98.74;102625.63;5034047;28;20513;-68
2024/02/19 00:04:30;;;;;;;2.37;2.17;;;;;;;-5.95;98.90;102608.38;5034699;28;20041;-68
2024/02/19 00:06:55;;;;;;;2.97;2.10;;;;;;;-5.88;99.36;102632.50;5034367;28;20120;-68
2024/02/19 00:09:21;;;;;;;2.20;2.00;;;;;;;-6.23;99.00;102567.09;5033944;28;20077;-69
2024/02/19 00:11:47;;;;;;;2.47;2.00;;;;;;;-5.95;99.99;102621.34;5032563;28;20128;-68
2024/02/19 00:14:13;;;;;;;2.87;2.03;;;;;;;-6.04;99.56;102610.19;5032664;28;20421;-67
2024/02/19 00:16:38;;;;;;;3.35;2.17;;;;;;;-5.94;99.78;102625.66;5033815;28;20048;-68
2024/02/19 00:19:06;;;;;;;3.37;1.97;;;;;;;-5.98;100.00;102618.78;5035418;28;20045;-71
2024/02/19 00:21:32;;;;;;;2.10;1.90;;;;;;;-6.06;100.00;102612.78;5035784;28;20144;-68
2024/02/19 00:23:58;;;;;;;4.97;2.20;;;;;;;-6.13;100.00;102600.72;5032935;28;20491;-68
2024/02/19 00:26:24;;;;;;;2.40;2.20;;;;;;;-6.07;100.00;102615.38;5033461;28;20061;-70
2024/02/19 00:28:49;;;;;;;1.80;1.70;;;;;;;-6.10;100.00;102621.44;5033339;28;20072;-70
2024/02/19 00:31:16;;;;;;;2.30;2.10;;;;;;;-6.02;100.00;102627.47;5032772;28;20041;-74
2024/02/19 00:33:42;;;;;;;3.20;2.17;;;;;;;-6.02;100.00;102630.06;5033352;28;20045;-69
2024/02/19 00:36:08;;;;;;;2.17;1.90;;;;;;;-6.16;100.00;102605.94;5032159;28;20041;-67
2024/02/19 00:38:34;;;;;;;2.73;2.50;;;;;;;-6.10;100.00;102621.44;5033358;28;20115;-70
2024/02/19 00:40:59;;;;;;;2.60;1.90;;;;;;;-6.11;100.00;102622.31;5033155;28;20044;-69
2024/02/19 00:43:25;;;;;;;2.33;2.07;;;;;;;-6.14;100.00;102627.53;5033287;28;20580;-69
2024/02/19 00:45:51;;;;;;;3.00;2.27;;;;;;;-6.29;100.00;102604.31;5033554;28;20493;-68
2024/02/19 00:48:17;;;;;;;1.98;1.88;;;;;;;-6.34;100.00;102606.94;5033504;28;20033;-69
2024/02/19 00:50:43;;;;;;;2.30;2.10;;;;;;;-6.28;100.00;102617.28;5031710;28;20555;-68
2024/02/19 00:53:08;;;;;;;4.43;2.00;;;;;;;-6.38;100.00;102596.56;5034249;28;20044;-70
2024/02/19 00:55:34;;;;;;;2.03;1.87;;;;;;;-6.29;100.00;102614.69;5036541;28;20045;-67
2024/02/19 00:58:00;;;;;;;3.03;2.23;;;;;;;-6.46;100.00;102588.00;5031984;28;20063;-69
2024/02/19 01:00:26;;;;;;;3.23;2.53;;;;;;;-6.43;100.00;102601.78;5033009;28;20795;-69
2024/02/19 01:02:52;;;;;;;2.45;2.25;;;;;;;-6.60;100.00;102573.41;5032222;28;20045;-68
2024/02/19 01:05:18;;;;;;;3.27;2.20;;;;;;;-6.59;100.00;102582.03;5033007;28;20041;-67
2024/02/19 01:07:44;;;;;;;5.53;3.40;;;;;;;-6.51;100.00;102602.72;5032864;28;20061;-69
2024/02/19 01:10:09;;;;;;;4.70;2.30;;;;;;;-6.50;100.00;102607.03;5032817;28;20076;-68
2024/02/19 01:12:36;;;;;;;7.43;3.00;;;;;;;-6.43;100.00;102625.13;5032513;28;20119;-68
2024/02/19 01:15:02;;;;;;;2.75;2.40;;;;;;;-6.49;100.00;102616.53;5032613;28;20408;-69
2024/02/19 01:17:29;;;;;;;4.80;2.55;;;;;;;-6.44;100.00;102632.91;5033052;28;20041;-70
2024/02/19 01:19:56;;;;;;;3.00;2.50;;;;;;;-6.43;100.00;102642.41;5036356;28;20429;-67
2024/02/19 01:22:21;;;;;;;3.83;3.17;;;;;;;-6.40;100.00;102644.97;5036784;28;20041;-69
2024/02/19 01:24:49;;;;;;;4.40;2.43;;;;;;;-6.69;100.00;102590.72;5033126;28;20053;-68
2024/02/19 01:27:16;;;;;;;3.67;2.58;;;;;;;-6.40;100.00;102634.63;5033449;28;20096;-69
2024/02/19 01:29:42;;;;;;;4.50;2.90;;;;;;;-6.52;100.00;102617.41;5032316;28;20464;-67
2024/02/19 01:32:08;;;;;;;5.63;3.57;;;;;;;-6.41;100.00;102630.31;5033003;28;20037;-68
2024/02/19 01:34:34;;;;;;;7.53;3.57;;;;;;;-6.35;100.00;102638.06;5031698;28;20072;-68
2024/02/19 01:37:00;;;;;;;6.00;2.20;;;;;;;-6.53;100.00;102607.06;5031086;28;20033;-68
2024/02/19 01:39:25;;;;;;;4.53;2.97;;;;;;;-6.41;100.00;102632.91;5030788;28;20206;-67
2024/02/19 01:41:51;;;;;;;4.27;2.27;;;;;;;-6.39;100.00;102636.34;5030955;28;20460;-68
2024/02/19 01:44:17;;;;;;;2.77;2.37;;;;;;;-6.40;100.00;102643.25;5032013;28;20037;-71
2024/02/19 01:46:44;;;;;;;3.63;2.75;;;;;;;-6.40;100.00;102642.41;5033502;28;20037;-68
2024/02/19 01:49:11;;;;;;;2.42;2.20;;;;;;;-6.42;100.00;102644.13;5035967;28;20036;-72
2024/02/19 01:51:38;;;;;;;4.72;2.45;;;;;;;-6.46;100.00;102621.69;5035405;28;20126;-68
2024/02/19 01:54:04;;;;;;;4.50;2.80;;;;;;;-6.70;100.00;102592.44;5035817;28;20037;-69
2024/02/19 01:56:30;;;;;;;2.73;2.53;;;;;;;-6.42;100.00;102636.34;5035962;28;20036;-69
2024/02/19 01:58:57;;;;;;;3.55;2.72;;;;;;;-6.52;100.00;102617.41;5032231;28;20060;-70
2024/02/19 02:01:23;;;;;;;2.90;2.50;;;;;;;-6.52;100.00;102626.94;5034282;28;20072;-70
2024/02/19 02:03:51;;;;;;;3.85;3.55;;;;;;;-6.80;100.00;102590.78;4999423;28;20025;-70
2024/02/19 02:06:16;;;;;;;5.25;3.00;;;;;;;-6.78;100.00;102595.97;5030639;28;20493;-69
2024/02/19 02:08:42;;;;;;;4.37;2.53;;;;;;;-6.72;100.00;102601.97;5031891;28;20033;-69
2024/02/19 02:11:07;;;;;;;5.23;3.40;;;;;;;-6.68;100.00;102611.44;5031527;28;20428;-70
2024/02/19 02:13:34;;;;;;;4.43;2.93;;;;;;;-6.59;100.00;102621.78;5031075;28;20477;-68
2024/02/19 02:16:04;;;;;;;4.53;3.78;;;;;;;-6.59;100.00;102621.78;5033633;28;20538;-70
2024/02/19 02:18:30;;;;;;;5.10;2.97;;;;;;;-6.73;100.00;102591.59;5033150;28;20045;-66
2024/02/19 02:20:56;;;;;;;3.53;2.77;;;;;;;-6.82;100.00;102574.38;5033620;28;20393;-69
2024/02/19 02:23:26;;;;;;;3.38;3.08;;;;;;;-6.60;100.00;102599.31;5033451;28;20049;-71
2024/02/19 02:25:54;;;;;;;3.40;3.05;;;;;;;-6.69;100.00;102581.22;5031931;28;20069;-68
2024/02/19 02:28:21;;;;;;;3.65;3.10;;;;;;;-6.72;100.00;102565.69;5032438;28;20129;-68
2024/02/19 02:30:48;;;;;;;3.97;2.60;;;;;;;-6.53;100.00;102597.56;5032043;28;20042;-70
2024/02/19 02:33:14;;;;;;;3.17;2.58;;;;;;;-6.77;100.00;102554.50;5032514;28;20068;-69
2024/02/19 02:35:40;;;;;;;3.87;2.43;;;;;;;-6.62;100.00;102582.94;5032782;28;20183;-68
2024/02/19 02:38:06;;;;;;;4.07;3.20;;;;;;;-6.71;100.00;102570.00;5033887;28;20041;-69
2024/02/19 02:40:31;;;;;;;4.10;2.95;;;;;;;-6.66;100.00;102570.84;5035771;28;20045;-67
2024/02/19 02:42:57;;;;;;;3.03;2.60;;;;;;;-6.62;100.00;102582.94;5035985;28;20520;-69
2024/02/19 02:45:23;;;;;;;3.13;2.70;;;;;;;-6.66;100.00;102573.41;5036065;28;20033;-67
2024/02/19 02:47:48;;;;;;;8.30;3.10;;;;;;;-6.70;100.00;102569.13;5035410;28;20065;-68
2024/02/19 02:50:14;;;;;;;5.13;3.03;;;;;;;-6.98;100.00;102523.53;5035709;28;20033;-67
2024/02/19 02:52:39;;;;;;;3.33;2.90;;;;;;;-6.73;100.00;102556.19;5034274;28;20481;-70
2024/02/19 02:55:05;;;;;;;4.30;2.43;;;;;;;-6.59;100.00;102585.50;5034459;28;20491;-68
2024/02/19 02:57:31;;;;;;;3.65;2.78;;;;;;;-6.64;100.00;102574.31;5035581;28;20045;-70
2024/02/19 02:59:56;;;;;;;3.37;2.53;;;;;;;-6.80;100.00;102536.38;5035478;28;20075;-70
2024/02/19 03:02:22;;;;;;;4.23;3.00;;;;;;;-6.56;100.00;102575.09;5035222;28;20052;-70
2024/02/19 03:04:48;;;;;;;2.83;2.40;;;;;;;-6.75;100.00;102547.56;5034023;28;20040;-68
2024/02/19 03:07:13;;;;;;;2.83;2.63;;;;;;;-6.74;100.00;102544.09;5034983;28;20115;-68
2024/02/19 03:09:39;;;;;;;5.60;2.70;;;;;;;-6.59;100.00;102567.34;5034715;28;20034;-67
2024/02/19 03:12:05;;;;;;;3.57;3.03;;;;;;;-6.72;100.00;102551.88;5035857;28;20095;-67
2024/02/19 03:14:30;;;;;;;3.97;2.83;;;;;;;-6.96;100.00;102511.41;5035008;28;20500;-69
2024/02/19 03:16:56;;;;;;;4.27;2.93;;;;;;;-6.95;100.00;102520.91;5035041;28;20041;-68
2024/02/19 03:19:21;;;;;;;4.27;3.07;;;;;;;-6.68;100.00;102569.97;5033761;28;20041;-67
2024/02/19 03:21:47;;;;;;;5.70;3.83;;;;;;;-6.84;100.00;102532.09;5034810;28;20040;-67
2024/02/19 03:24:38;;;;;;;5.18;3.20;;;;;;;-6.82;100.00;102543.31;5035229;28;20060;-70
2024/02/19 03:27:06;;;;;;;3.47;3.17;;;;;;;-6.89;100.00;102534.72;5035180;28;20560;-69
2024/02/19 03:29:32;;;;;;;4.15;3.25;;;;;;;-6.96;100.00;102532.13;5033572;28;20064;-70
2024/02/19 03:31:58;;;;;;;4.40;2.97;;;;;;;-7.25;100.00;102489.13;5035023;28;20041;-69
2024/02/19 03:34:24;;;;;;;5.80;3.80;;;;;;;-7.00;100.00;102545.97;5035796;28;20037;-68
2024/02/19 03:36:50;;;;;;;4.03;3.63;;;;;;;-6.98;100.00;102554.59;5035519;28;20116;-69
2024/02/19 03:39:17;;;;;;;4.40;3.30;;;;;;;-6.85;100.00;102571.81;5034711;28;20037;-67
2024/02/19 03:41:43;;;;;;;4.75;3.30;;;;;;;-7.03;100.00;102539.09;5035047;28;20076;-68
2024/02/19 03:44:08;;;;;;;3.33;3.00;;;;;;;-6.98;100.00;102554.59;5034539;28;20064;-67
2024/02/19 03:46:34;;;;;;;3.83;3.53;;;;;;;-6.93;100.00;102563.22;5034318;28;20472;-66
2024/02/19 03:49:00;;;;;;;3.57;3.27;;;;;;;-6.91;100.00;102566.69;5032553;28;20532;-70
2024/02/19 03:51:25;;;;;;;5.90;3.60;;;;;;;-6.91;100.00;102567.53;5034438;28;20635;-70
2024/02/19 03:53:51;;;;;;;5.63;3.43;;;;;;;-6.89;100.00;102567.53;5033298;28;20193;-67
2024/02/19 03:56:17;;;;;;;3.43;3.13;;;;;;;-6.98;100.00;102552.00;5034514;28;20057;-68
2024/02/19 03:58:43;;;;;;;3.67;3.38;;;;;;;-6.96;100.00;102563.22;5034200;28;20417;-69
2024/02/19 04:01:09;;;;;;;7.57;5.13;;;;;;;-7.04;100.00;102560.69;5034192;28;20052;-68
2024/02/19 04:03:35;;;;;;;3.93;3.63;;;;;;;-7.13;100.00;102554.69;5033426;28;20120;-67
2024/02/19 04:06:01;;;;;;;5.23;4.27;;;;;;;-7.07;100.00;102554.66;5032758;28;20034;-68
2024/02/19 04:08:26;;;;;;;6.28;3.47;;;;;;;-7.05;100.00;102556.38;5034813;28;20041;-69
2024/02/19 04:10:52;;;;;;;5.80;4.53;;;;;;;-7.14;100.00;102552.97;5035768;28;20075;-70
2024/02/19 04:13:17;;;;;;;6.17;4.33;;;;;;;-7.40;100.00;102515.09;5016088;28;20033;-67
2024/02/19 04:15:43;;;;;;;5.10;3.20;;;;;;;-7.27;100.00;102545.22;5032590;28;20528;-68
2024/02/19 04:18:09;;;;;;;3.40;3.10;;;;;;;-7.15;100.00;102567.63;5032927;28;20103;-69
2024/02/19 04:20:34;;;;;;;4.93;4.10;;;;;;;-7.18;100.00;102570.25;5032331;28;20366;-71
2024/02/19 04:23:00;;;;;;;8.13;6.30;;;;;;;-7.46;100.00;102514.25;5032522;28;20060;-69
2024/02/19 04:25:26;;;;;;;4.87;3.50;;;;;;;-7.32;100.00;102544.38;5033804;28;20050;-70
2024/02/19 04:27:52;;;;;;;4.60;4.18;;;;;;;-7.33;100.00;102552.16;5033697;28;20037;-73
2024/02/19 04:30:18;;;;;;;13.35;9.52;;;;;;;-7.38;100.00;102538.38;5033616;28;20053;-71
2024/02/19 04:32:44;;;;;;;6.77;5.33;;;;;;;-7.26;100.00;102567.66;5033048;28;20031;-70
2024/02/19 04:35:10;;;;;;;6.50;4.83;;;;;;;-7.33;100.00;102542.66;5034603;28;20508;-74
2024/02/19 04:37:36;;;;;;;7.20;4.90;;;;;;;-7.68;100.00;102492.75;5052057;28;20283;-70
2024/02/19 04:40:02;;;;;;;8.02;4.80;;;;;;;-7.51;100.00;102514.28;5038866;28;20143;-71
2024/02/19 04:42:29;;;;;;;5.03;4.38;;;;;;;-7.46;100.00;102530.66;5034070;28;20056;-70
2024/02/19 04:44:54;;;;;;;7.93;4.50;;;;;;;-7.32;100.00;102553.88;5035239;28;20489;-75
2024/02/19 04:47:23;;;;;;;9.40;5.67;;;;;;;-7.40;100.00;102534.94;5033573;28;20033;-78
2024/02/19 04:49:48;;;;;;;8.15;5.40;;;;;;;-7.56;100.00;102508.25;5034025;28;20041;-73
2024/02/19 04:52:14;;;;;;;6.30;5.53;;;;;;;-7.21;100.00;102563.34;5033943;28;20103;-72
2024/02/19 04:54:40;;;;;;;6.47;5.13;;;;;;;-7.21;100.00;102558.19;5033313;28;20064;-72
2024/02/19 04:57:05;;;;;;;10.20;5.43;;;;;;;-7.33;100.00;102539.22;5033760;28;20150;-74
2024/02/19 04:59:31;;;;;;;7.43;5.03;;;;;;;-7.25;100.00;102550.41;5030579;28;20037;-68
2024/02/19 05:01:57;;;;;;;8.60;4.73;;;;;;;-7.34;100.00;102535.78;5033160;28;20040;-72
2024/02/19 05:04:24;;;;;;;6.40;4.27;;;;;;;-7.36;100.00;102540.09;5031103;28;20042;-70
2024/02/19 05:06:50;;;;;;;8.05;5.10;;;;;;;-7.22;100.00;102561.63;5032969;28;20037;-72
2024/02/19 05:09:15;;;;;;;15.57;7.77;;;;;;;-7.33;100.00;102537.50;5032695;28;20483;-69
2024/02/19 05:11:42;;;;;;;7.50;5.47;;;;;;;-7.19;100.00;102563.34;5031810;28;20041;-71
2024/02/19 05:14:07;;;;;;;8.00;5.80;;;;;;;-7.27;100.00;102545.22;5029752;28;20046;-73
2024/02/19 05:16:34;;;;;;;8.50;5.07;;;;;;;-7.15;100.00;102561.59;5030694;28;20909;-70
2024/02/19 05:19:02;;;;;;;5.95;5.35;;;;;;;-7.16;100.00;102554.69;5029567;28;20064;-70
2024/02/19 05:21:28;;;;;;;5.73;4.90;;;;;;;-7.20;100.00;102552.13;5030939;28;20485;-69
2024/02/19 05:23:54;;;;;;;4.47;3.90;;;;;;;-7.38;100.00;102515.94;5029181;28;20052;-73
2024/02/19 05:26:26;;;;;;;6.57;5.07;;;;;;;-7.27;100.00;102532.28;5030433;28;20721;-72
2024/02/19 05:28:53;;;;;;;7.25;4.38;;;;;;;-7.24;100.00;102534.84;5030584;28;20470;-73
2024/02/19 05:31:35;;;;;;;5.03;4.00;;;;;;;-7.24;100.00;102532.28;5061184;28;20056;-72
2024/02/19 05:34:03;;;;;;;5.32;3.78;;;;;;;-7.22;100.00;102538.34;5031933;28;20485;-69
2024/02/19 05:36:29;;;;;;;6.25;5.47;;;;;;;-7.18;100.00;102552.13;5030795;28;20037;-70
2024/02/19 05:38:55;;;;;;;5.40;4.43;;;;;;;-7.37;100.00;102522.84;5031868;28;20076;-71
2024/02/19 05:41:20;;;;;;;8.20;4.90;;;;;;;-7.31;100.00;102540.06;5063961;28;20042;-71
2024/02/19 05:43:49;;;;;;;8.13;5.50;;;;;;;-7.22;100.00;102550.41;5030710;28;20096;-71
2024/02/19 05:46:15;;;;;;;5.78;4.50;;;;;;;-7.23;100.00;102546.06;5032060;28;20037;-71
2024/02/19 05:48:41;;;;;;;30.77;18.63;;;;;;;-7.24;100.00;102536.59;5031915;28;20052;-69
2024/02/19 05:51:07;;;;;;;19.92;12.45;;;;;;;-7.04;100.00;102567.59;5031912;28;20444;-70
2024/02/19 05:53:34;;;;;;;15.63;7.83;;;;;;;-7.15;100.00;102535.72;5032307;28;20037;-71
2024/02/19 05:56:00;;;;;;;15.57;7.47;;;;;;;-7.00;100.00;102561.50;5035112;28;20065;-70
2024/02/19 05:58:26;;;;;;;8.43;6.32;;;;;;;-6.96;100.00;102571.84;5033132;28;20053;-68
2024/02/19 06:00:51;;;;;;;8.90;5.53;;;;;;;-7.10;100.00;102544.31;5032132;28;20063;-70
2024/02/19 06:03:17;;;;;;;8.03;5.37;;;;;;;-7.03;100.00;102551.19;5031004;28;20444;-69
2024/02/19 06:05:42;;;;;;;5.70;5.00;;;;;;;-6.95;100.00;102550.25;5016801;28;20484;-70
2024/02/19 06:08:08;;;;;;;8.30;5.63;;;;;;;-6.78;100.00;102562.28;5034396;28;20044;-70
2024/02/19 06:10:33;;;;;;;9.63;5.97;;;;;;;-7.25;100.00;102481.38;5036083;28;20041;-69
2024/02/19 06:13:00;;;;;;;12.13;6.30;;;;;;;-6.69;100.00;102560.47;5034220;28;20052;-69
2024/02/19 06:15:27;;;;;;;8.65;5.75;;;;;;;-6.78;100.00;102521.69;5035698;28;20166;-72
2024/02/19 06:17:53;;;;;;;7.88;5.10;;;;;;;-6.46;100.00;102557.75;5032532;28;20046;-72
2024/02/19 06:20:19;;;;;;;10.43;5.25;;;;;;;-6.45;100.00;102540.47;5032969;28;20444;-71
2024/02/19 06:22:45;;;;;;;13.30;6.97;;;;;;;-6.36;100.00;102524.84;5036557;28;20041;-69
2024/02/19 06:25:11;;;;;;;16.33;8.07;;;;;;;-6.10;100.00;102554.00;5037943;28;20080;-70
2024/02/19 06:27:39;;;;;;;7.00;5.85;;;;;;;-6.08;100.00;102548.81;5035447;28;20045;-70
2024/02/19 06:30:06;;;;;;;10.98;5.15;;;;;;;-6.01;100.00;102572.13;5032703;28;20420;-71
2024/02/19 06:32:31;;;;;;;8.07;5.90;;;;;;;-6.09;100.00;102555.72;5047464;28;20044;-71
2024/02/19 06:34:57;;;;;;;11.17;6.63;;;;;;;-6.48;100.00;102494.69;5032002;28;20119;-71
2024/02/19 06:37:22;;;;;;;12.50;5.47;;;;;;;-6.11;100.00;102570.44;5032137;28;20101;-71
2024/02/19 06:39:48;;;;;;;10.53;5.53;;;;;;;-6.09;100.00;102573.88;5033625;28;20038;-70
2024/02/19 06:42:14;;;;;;;5.60;4.60;;;;;;;-6.14;100.00;102560.09;5032551;28;20036;-70
2024/02/19 06:44:39;;;;;;;11.23;4.40;;;;;;;-6.07;100.00;102559.19;5030740;28;20811;-70
2024/02/19 06:47:05;;;;;;;6.20;4.77;;;;;;;-6.64;100.00;102462.88;5032239;28;20347;-71
2024/02/19 06:49:30;;;;;;;6.83;4.50;;;;;;;-5.91;100.00;102564.25;5030917;28;20128;-70
2024/02/19 06:51:56;;;;;;;6.50;4.47;;;;;;;-6.06;100.00;102528.94;5035158;28;20038;-70
2024/02/19 06:54:22;;;;;;;11.60;6.63;;;;;;;-5.98;100.00;102553.94;5056710;28;20038;-68
2024/02/19 06:56:47;;;;;;;8.73;5.10;;;;;;;-5.89;100.00;102563.31;5027410;28;20552;-70
2024/02/19 06:59:13;;;;;;;7.60;4.23;;;;;;;-5.92;100.00;102573.75;5031337;28;20401;-68
2024/02/19 07:01:41;;;;;;;7.30;4.80;;;;;;;-5.96;100.00;102534.00;5027458;28;20042;-70
2024/02/19 07:04:07;;;;;;;6.28;4.30;;;;;;;-5.41;100.00;102559.38;5030853;28;20034;-69
2024/02/19 07:06:32;;;;;;;6.07;4.23;;;;;;;-5.18;100.00;102558.25;5030938;28;20176;-73
2024/02/19 07:08:58;;;;;;;5.57;3.93;;;;;;;-5.25;100.00;102552.25;5030901;28;20040;-68
2024/02/19 07:11:23;;;;;;;7.73;5.00;;;;;;;-5.05;100.00;102534.69;5031668;28;20037;-68
2024/02/19 07:13:51;;;;;;;5.60;4.13;;;;;;;-5.03;100.00;102487.91;5032673;28;20048;-69
2024/02/19 07:16:17;;;;;;;6.55;4.03;;;;;;;-4.64;100.00;102540.19;5032650;28;20521;-69
2024/02/19 07:18:43;;;;;;;4.53;4.07;;;;;;;-4.73;100.00;102562.84;5030881;28;20033;-68
2024/02/19 07:21:08;;;;;;;12.37;5.53;;;;;;;-5.36;100.00;102486.63;5030989;28;20455;-68
2024/02/19 07:23:34;;;;;;;4.73;4.23;;;;;;;-5.05;100.00;102546.81;5032670;28;20065;-66
2024/02/19 07:25:59;;;;;;;7.93;5.53;;;;;;;-5.04;100.00;102553.75;5034481;28;20068;-70
2024/02/19 07:28:26;;;;;;;12.60;4.60;;;;;;;-5.20;100.00;102526.25;5034119;28;20508;-71
2024/02/19 07:30:51;;;;;;;6.93;4.07;;;;;;;-5.06;100.00;102558.94;5035385;28;20132;-72
2024/02/19 07:33:17;;;;;;;4.30;3.53;;;;;;;-5.09;100.00;102539.94;5035441;28;20069;-69
2024/02/19 07:35:42;;;;;;;11.00;5.97;;;;;;;-5.14;100.00;102532.22;5033776;28;20087;-71
2024/02/19 07:38:08;;;;;;;6.67;5.10;;;;;;;-4.98;100.00;102548.47;5035214;28;20044;-71
2024/02/19 07:40:34;;;;;;;8.63;4.33;;;;;;;-5.16;100.00;102504.53;5036673;28;20117;-70
2024/02/19 07:43:00;;;;;;;12.33;6.47;;;;;;;-4.88;100.00;102557.00;5034607;28;20037;-70
2024/02/19 07:45:25;;;;;;;5.50;3.73;;;;;;;-4.92;99.75;102532.78;5033887;28;20127;-70
2024/02/19 07:47:51;;;;;;;4.87;3.97;;;;;;;-5.02;99.43;102502.63;5035501;28;20131;-70
2024/02/19 07:50:16;;;;;;;10.17;5.00;;;;;;;-4.84;99.18;102533.56;5035444;28;20176;-71
2024/02/19 07:52:46;;;;;;;9.47;4.10;;;;;;;-4.82;99.24;102529.19;5034941;28;20132;-68
2024/02/19 07:55:12;;;;;;;5.35;3.63;;;;;;;-4.83;99.32;102524.88;5017524;28;20436;-69
2024/02/19 07:57:37;;;;;;;7.33;4.80;;;;;;;-4.73;99.77;102521.25;5034084;28;20042;-67
2024/02/19 08:00:05;;;;;;;7.07;5.13;;;;;;;-4.87;99.10;102476.44;5033981;28;20505;-70
2024/02/19 08:02:31;;;;;;;5.70;3.97;;;;;;;-4.69;99.60;102490.88;5034419;28;20064;-69
2024/02/19 08:04:56;;;;;;;8.53;4.70;;;;;;;-4.56;99.27;102496.75;5032654;28;20438;-70
2024/02/19 08:07:22;;;;;;;5.57;3.40;;;;;;;-4.45;97.86;102511.28;5034461;28;20045;-69
2024/02/19 08:09:47;;;;;;;5.63;3.40;;;;;;;-4.36;96.92;102505.94;5033801;28;20802;-70
2024/02/19 08:12:13;;;;;;;5.90;3.47;;;;;;;-4.31;96.23;102499.84;5033707;28;20397;-73
2024/02/19 08:14:38;;;;;;;3.80;3.10;;;;;;;-4.63;95.90;102435.31;5034447;28;20539;-70
2024/02/19 08:17:04;;;;;;;4.00;3.20;;;;;;;-4.19;95.83;102492.66;5033810;28;20041;-70
2024/02/19 08:19:30;;;;;;;6.47;4.17;;;;;;;-4.03;94.46;102515.84;5032061;28;20029;-69
2024/02/19 08:21:58;;;;;;;5.18;3.65;;;;;;;-3.95;94.67;102511.34;5033905;28;20034;-69
2024/02/19 08:24:25;;;;;;;5.00;3.60;;;;;;;-4.28;93.86;102446.00;5032312;28;20033;-66
2024/02/19 08:26:51;;;;;;;7.72;3.83;;;;;;;-3.95;93.90;102496.59;5033642;28;20057;-70
2024/02/19 08:29:26;;;;;;;10.53;6.13;;;;;;;-4.15;92.46;102446.63;5033350;28;20067;-70
2024/02/19 08:31:52;;;;;;;5.47;3.67;;;;;;;-3.85;91.95;102481.66;5033374;28;20324;-70
2024/02/19 08:34:17;;;;;;;6.67;3.20;;;;;;;-4.19;91.31;102414.63;5033274;28;20067;-71
2024/02/19 08:36:49;;;;;;;6.67;3.80;;;;;;;-3.73;90.49;102486.63;5032397;28;20065;-70
2024/02/19 08:39:14;;;;;;;5.00;3.55;;;;;;;-3.66;89.64;102485.63;5032313;28;20516;-68
2024/02/19 08:41:41;;;;;;;5.27;3.87;;;;;;;-3.78;89.47;102452.00;5033626;28;20042;-70
2024/02/19 08:44:07;;;;;;;4.82;3.97;;;;;;;-3.97;89.35;102414.22;5033206;28;20429;-69
2024/02/19 08:46:35;;;;;;;6.17;3.87;;;;;;;-3.63;88.67;102462.13;5031872;28;20033;-70
2024/02/19 08:49:01;;;;;;;5.75;4.50;;;;;;;-3.66;88.17;102458.72;5031479;28;20034;-68
2024/02/19 08:51:28;;;;;;;6.57;3.57;;;;;;;-3.42;88.48;102486.88;5033314;28;20056;-69
2024/02/19 08:53:54;;;;;;;4.78;3.22;;;;;;;-3.39;87.82;102475.56;5031927;28;20421;-69
2024/02/19 08:56:19;;;;;;;5.17;3.80;;;;;;;-3.34;88.01;102468.50;5032372;28;20038;-70
2024/02/19 08:58:45;;;;;;;7.83;4.33;;;;;;;-3.23;87.87;102467.34;5031858;28;20034;-70
2024/02/19 09:01:12;;;;;;;7.87;3.90;;;;;;;-3.27;86.36;102450.09;5031680;28;20033;-70
2024/02/19 09:03:38;;;;;;;4.88;4.03;;;;;;;-3.27;85.41;102439.66;5032608;28;20461;-69
2024/02/19 09:06:04;;;;;;;8.27;4.50;;;;;;;-3.08;84.27;102465.31;5032879;28;20044;-69
2024/02/19 09:08:30;;;;;;;4.60;3.50;;;;;;;-2.95;84.52;102472.81;5032880;28;20029;-69
2024/02/19 09:10:56;;;;;;;5.13;3.33;;;;;;;-2.91;84.14;102481.44;5031756;28;20220;-72
2024/02/19 09:13:21;;;;;;;7.40;4.60;;;;;;;-2.92;83.98;102477.97;5032637;28;20052;-68
2024/02/19 09:15:47;;;;;;;8.73;3.53;;;;;;;-2.97;83.23;102458.97;5032365;28;20079;-69
2024/02/19 09:18:12;;;;;;;6.17;3.43;;;;;;;-2.75;82.49;102480.19;5032430;28;20084;-68
2024/02/19 09:20:39;;;;;;;5.90;3.57;;;;;;;-2.77;81.68;102463.75;5032510;28;20091;-70
2024/02/19 09:23:05;;;;;;;6.47;3.65;;;;;;;-2.75;80.29;102458.47;5032562;28;20040;-70
2024/02/19 09:25:32;;;;;;;10.10;4.20;;;;;;;-2.67;80.03;102465.22;5032247;28;20053;-70
2024/02/19 09:27:57;;;;;;;5.32;3.20;;;;;;;-2.65;81.11;102470.41;5031456;28;20370;-69
2024/02/19 09:30:23;;;;;;;7.50;3.60;;;;;;;-2.52;80.92;102487.50;5032086;28;20048;-70
2024/02/19 09:32:49;;;;;;;7.37;3.40;;;;;;;-2.44;80.39;102474.25;5032241;28;20116;-70
2024/02/19 09:35:16;;;;;;;10.82;4.32;;;;;;;-2.40;80.82;102481.09;5032280;28;20053;-69
2024/02/19 09:37:48;;;;;;;5.23;3.43;;;;;;;-2.52;80.32;102464.00;5032332;28;20500;-69
2024/02/19 09:40:14;;;;;;;8.25;3.42;;;;;;;-2.48;81.25;102452.59;5032083;28;20276;-70
2024/02/19 09:42:40;;;;;;;5.18;3.50;;;;;;;-2.23;80.85;102486.78;5032037;28;20040;-71
2024/02/19 09:45:08;;;;;;;10.17;3.53;;;;;;;-2.37;80.08;102453.19;5031906;28;20033;-70
2024/02/19 09:47:37;;;;;;;4.65;3.20;;;;;;;-2.32;80.31;102458.28;5031495;28;20044;-70
2024/02/19 09:50:04;;;;;;;;;;;;;;;-2.13;80.86;102476.94;5032532;28;20397;-70
2024/02/19 09:52:30;;;;;;;7.15;4.57;;;;;;;-2.20;79.61;102473.66;5032105;28;19959;-69
2024/02/19 09:54:57;;;;;;;4.13;2.97;;;;;;;-2.15;80.26;102470.91;5032146;28;20129;-68
2024/02/19 09:57:23;;;;;;;3.55;2.80;;;;;;;-2.18;81.26;102461.41;5032075;28;20037;-69
2024/02/19 09:59:49;;;;;;;6.57;3.72;;;;;;;-1.98;81.43;102476.56;5032036;28;20061;-72
2024/02/19 10:02:21;;;;;;;6.55;4.70;;;;;;;-2.07;81.26;102448.06;5031596;28;20045;-71
2024/02/19 10:04:47;;;;;;;6.68;3.90;;;;;;;-1.86;80.61;102471.00;5030062;28;20751;-70
2024/02/19 10:07:20;;;;;;;8.45;3.63;;;;;;;-2.00;80.18;102432.22;5030584;28;20408;-69
2024/02/19 10:09:49;;;;;;;8.98;3.80;;;;;;;-1.89;79.95;102452.81;5030940;28;20037;-72
2024/02/19 10:12:16;;;;;;;5.00;3.97;;;;;;;-1.95;80.88;102448.63;5030726;28;20076;-71
2024/02/19 10:14:42;;;;;;;5.32;3.03;;;;;;;-1.90;80.33;102461.53;5030348;28;20112;-70
2024/02/19 10:17:11;;;;;;;6.68;3.10;;;;;;;-1.97;79.59;102439.13;5030797;28;20037;-71
2024/02/19 10:19:37;;;;;;;2.60;2.05;;;;;;;-2.07;79.04;102419.34;5030734;28;20076;-71
2024/02/19 10:22:03;;;;;;;3.80;2.90;;;;;;;-1.88;78.27;102454.53;5030936;28;20493;-69
2024/02/19 10:24:29;;;;;;;5.40;2.73;;;;;;;-1.81;78.61;102455.19;5031602;28;20294;-72
2024/02/19 10:26:57;;;;;;;7.73;3.70;;;;;;;-1.96;78.29;102446.03;5030951;28;20759;-72
2024/02/19 10:29:28;;;;;;;4.90;3.03;;;;;;;-1.90;78.06;102451.09;5032729;28;20077;-72
2024/02/19 10:31:54;;;;;;;5.43;3.15;;;;;;;-1.89;77.73;102452.81;5031249;28;20450;-73
2024/02/19 10:34:38;;;;;;;4.77;2.60;;;;;;;-2.01;78.89;102427.03;5032725;28;20172;-72
2024/02/19 10:37:05;;;;;;;4.28;2.25;;;;;;;-1.92;78.30;102447.66;5015720;28;20033;-71
2024/02/19 10:39:32;;;;;;;6.68;3.40;;;;;;;-2.09;79.43;102405.50;5029232;28;20029;-73
2024/02/19 10:42:01;;;;;;;7.47;3.22;;;;;;;-1.79;79.79;102443.81;5030644;28;20041;-74
2024/02/19 10:44:28;;;;;;;7.65;3.58;;;;;;;-1.86;80.20;102416.16;5030513;28;20041;-71
2024/02/19 10:46:54;;;;;;;4.60;3.05;;;;;;;-1.82;80.14;102423.00;5030384;28;20044;-75
2024/02/19 10:49:21;;;;;;;5.07;2.88;;;;;;;-1.88;80.06;102417.97;5030446;28;20040;-73
2024/02/19 10:51:46;;;;;;;9.18;3.28;;;;;;;-1.89;80.69;102411.03;5030257;28;20041;-73
2024/02/19 10:54:16;;;;;;;4.07;3.10;;;;;;;-1.74;79.93;102433.22;5030628;28;20051;-72
2024/02/19 10:56:43;;;;;;;6.53;3.00;;;;;;;-1.87;80.10;102415.31;5029773;28;20048;-74
2024/02/19 10:59:12;;;;;;;4.70;3.33;;;;;;;-2.35;79.55;102348.78;5033763;28;20624;-70
2024/02/19 11:01:40;;;;;;;3.85;2.70;;;;;;;-1.82;80.45;102432.59;5034800;28;20037;-71
2024/02/19 11:04:18;;;;;;;6.45;3.53;;;;;;;-1.91;80.16;102405.00;5033561;28;20428;-71
2024/02/19 11:06:46;;;;;;;4.55;2.83;;;;;;;-1.82;80.72;102416.94;5036330;28;20392;-69
2024/02/19 11:09:12;;;;;;;5.70;3.63;;;;;;;-1.77;80.40;102421.13;5034499;28;20242;-71
2024/02/19 11:11:58;;;;;;;7.03;4.30;;;;;;;-1.79;80.99;102407.25;5040421;28;20041;-69
2024/02/19 11:14:27;;;;;;;5.28;3.42;;;;;;;-1.81;81.59;102388.16;5033312;28;20032;-72
2024/02/19 11:16:57;;;;;;;9.70;3.60;;;;;;;-1.63;81.11;102407.69;5039961;28;20079;-71